SBUG/URG METAR and TAF weather

Enter ICAO airport designator
Station Type Date Time Source
SBUG METAR 2019/02/22 22:00 UTC NOAA

SBUG 222200Z 02004KT CAVOK 34/20 Q1008


Station Type Date Time Source
SBUG Decoded METAR 2019/02/22 22:00 UTC NOAA

Uruguaiana Aeroporto , Brazil (SBUG) 29-47S 057-02W 74M
Feb 22, 2019 - 05:00 PM EST / 2019.02.22 2200 UTC
Wind: from the NNE (020 degrees) at 5 MPH (4 KT):0
Visibility: greater than 7 mile(s):0
Temperature: 93 F (34 C)
Heat index: 96.8 F (36.0 C):1
Dew Point: 68 F (20 C)
Relative Humidity: 43%
Pressure (altimeter): 29.77 in. Hg (1008 hPa)
ob: SBUG 222200Z 02004KT CAVOK 34/20 Q1008
cycle: 22

Station Type Date Time Source
SBUG TAF 2019/02/22 18:57 UTC NOAA

TAF SBUG 221600Z 2218/2306 02008KT CAVOK TX36/2218Z TN27/2306Z
RMK PC X


Example: see airport list